Decoded Metar for LFRG (DEAUVILLE in FRANCE) (IATA:DOL) | Meteo·Mobile Aviation Weather
aviador You're here:

LFRG Decoded Metar

DEAUVILLE in FRANCE
Report Time2018-08-21 07:30:00
UTC Time2018-08-21 07:51:34
Flight Rules ifr IFR
Wind270° at 05 kt
W.Decomp.*RWY 30: 4.4 kt HW 2.4 kt LCW
W.Rank270° ranks 8
Current wind is below 270° avg. (8.5)
Visibility9999 m
Phenomena:N/A
Clouds:Broken 005 Hf
Broken 013 Hf
Overcast 032 Hf
Expected CloudBase > 400 ft AGL from Temp-Dew spread
Ceiling500 ft
Temp19°C (ISA +5)
Dew Point18°C (94% RH)
QNH1022 hPa
Density Alt1,030 ft
Elevation479 ft
Report Wrong Elevation
Raw Report
LFRG 210730Z AUTO 27005KT 9999 BKN005 BKN013 OVC032 19/18 Q1022
NOSIG=

Extra information for LFRG:More info

Metar Taf Metar & Taf Last 4 Metars F.Rules Stats Wind Profile Meteogram Temp Stats Airport Information Weather charts Add Link Nearby VenuesMetar ALERT Operation Metar Decoded Social comments